sensor_id;sensor_type;location;lat;lon;timestamp;temperature;humidity
1453;DHT22;720;47.738;7.998;2022-11-15T00:01:45;9.20;99.90
1453;DHT22;720;47.738;7.998;2022-11-15T00:04:11;9.10;99.90
1453;DHT22;720;47.738;7.998;2022-11-15T00:06:37;9.00;99.90
1453;DHT22;720;47.738;7.998;2022-11-15T00:09:03;9.00;99.90
1453;DHT22;720;47.738;7.998;2022-11-15T00:11:28;8.90;99.90
1453;DHT22;720;47.738;7.998;2022-11-15T00:13:55;8.80;99.90
1453;DHT22;720;47.738;7.998;2022-11-15T00:16:21;8.70;99.90
1453;DHT22;720;47.738;7.998;2022-11-15T00:18:47;8.60;99.90
1453;DHT22;720;47.738;7.998;2022-11-15T00:21:14;8.60;99.90
1453;DHT22;720;47.738;7.998;2022-11-15T00:23:40;8.60;99.90
1453;DHT22;720;47.738;7.998;2022-11-15T00:26:06;8.60;99.90
1453;DHT22;720;47.738;7.998;2022-11-15T00:28:32;8.70;99.90
1453;DHT22;720;47.738;7.998;2022-11-15T00:31:02;8.80;99.90
1453;DHT22;720;47.738;7.998;2022-11-15T00:33:28;8.90;99.90
1453;DHT22;720;47.738;7.998;2022-11-15T00:36:04;8.90;99.90
1453;DHT22;720;47.738;7.998;2022-11-15T00:38:32;8.90;99.90
1453;DHT22;720;47.738;7.998;2022-11-15T00:40:58;9.00;99.90
1453;DHT22;720;47.738;7.998;2022-11-15T00:43:24;8.90;99.90
1453;DHT22;720;47.738;7.998;2022-11-15T00:45:49;9.00;99.90
1453;DHT22;720;47.738;7.998;2022-11-15T00:48:15;9.10;99.90
1453;DHT22;720;47.738;7.998;2022-11-15T00:50:40;9.10;99.90
1453;DHT22;720;47.738;7.998;2022-11-15T00:53:06;9.10;99.90
1453;DHT22;720;47.738;7.998;2022-11-15T00:55:32;9.10;99.90
1453;DHT22;720;47.738;7.998;2022-11-15T00:57:57;9.10;99.90
1453;DHT22;720;47.738;7.998;2022-11-15T01:00:23;9.10;99.90
1453;DHT22;720;47.738;7.998;2022-11-15T01:02:49;9.00;99.90
1453;DHT22;720;47.738;7.998;2022-11-15T01:05:14;9.10;99.90
1453;DHT22;720;47.738;7.998;2022-11-15T01:07:40;9.00;99.90
1453;DHT22;720;47.738;7.998;2022-11-15T01:10:06;9.00;99.90
1453;DHT22;720;47.738;7.998;2022-11-15T01:12:32;9.10;99.90
1453;DHT22;720;47.738;7.998;2022-11-15T01:14:57;9.20;99.90
1453;DHT22;720;47.738;7.998;2022-11-15T01:17:23;9.20;99.90
1453;DHT22;720;47.738;7.998;2022-11-15T01:19:49;9.20;99.90
1453;DHT22;720;47.738;7.998;2022-11-15T01:22:15;9.20;99.90
1453;DHT22;720;47.738;7.998;2022-11-15T01:24:41;9.10;99.90
1453;DHT22;720;47.738;7.998;2022-11-15T01:27:07;9.10;99.90
1453;DHT22;720;47.738;7.998;2022-11-15T01:29:32;9.00;99.90
1453;DHT22;720;47.738;7.998;2022-11-15T01:31:58;9.10;99.90
1453;DHT22;720;47.738;7.998;2022-11-15T01:34:24;9.10;99.90
1453;DHT22;720;47.738;7.998;2022-11-15T01:36:49;9.10;99.90
1453;DHT22;720;47.738;7.998;2022-11-15T01:39:15;9.20;99.90
1453;DHT22;720;47.738;7.998;2022-11-15T01:41:41;9.30;99.90
1453;DHT22;720;47.738;7.998;2022-11-15T01:46:59;9.30;99.90
1453;DHT22;720;47.738;7.998;2022-11-15T01:49:27;9.30;99.90
1453;DHT22;720;47.738;7.998;2022-11-15T01:51:54;9.40;99.90
1453;DHT22;720;47.738;7.998;2022-11-15T01:54:21;9.40;99.90
1453;DHT22;720;47.738;7.998;2022-11-15T01:56:55;9.40;99.90
1453;DHT22;720;47.738;7.998;2022-11-15T01:59:24;9.40;99.90
1453;DHT22;720;47.738;7.998;2022-11-15T02:01:50;9.40;99.90
1453;DHT22;720;47.738;7.998;2022-11-15T02:04:28;9.30;99.90
1453;DHT22;720;47.738;7.998;2022-11-15T02:06:54;9.30;99.90
1453;DHT22;720;47.738;7.998;2022-11-15T02:09:19;9.40;99.90
1453;DHT22;720;47.738;7.998;2022-11-15T02:11:46;9.40;99.90
1453;DHT22;720;47.738;7.998;2022-11-15T02:14:14;9.40;99.90
1453;DHT22;720;47.738;7.998;2022-11-15T02:17:05;9.40;99.90
1453;DHT22;720;47.738;7.998;2022-11-15T02:33:53;9.40;99.90
1453;DHT22;720;47.738;7.998;2022-11-15T02:36:41;9.50;99.90
1453;DHT22;720;47.738;7.998;2022-11-15T02:42:30;9.40;99.90
1453;DHT22;720;47.738;7.998;2022-11-15T02:45:26;9.40;99.90
1453;DHT22;720;47.738;7.998;2022-11-15T02:47:54;9.50;99.90
1453;DHT22;720;47.738;7.998;2022-11-15T02:50:26;9.50;99.90
1453;DHT22;720;47.738;7.998;2022-11-15T02:52:53;9.40;99.90
1453;DHT22;720;47.738;7.998;2022-11-15T02:55:31;9.40;99.90
1453;DHT22;720;47.738;7.998;2022-11-15T03:01:26;9.40;99.90
1453;DHT22;720;47.738;7.998;2022-11-15T03:07:06;9.60;99.90
1453;DHT22;720;47.738;7.998;2022-11-15T03:09:46;9.60;99.90
1453;DHT22;720;47.738;7.998;2022-11-15T03:12:24;9.60;99.90
1453;DHT22;720;47.738;7.998;2022-11-15T03:15:05;9.60;99.90
1453;DHT22;720;47.738;7.998;2022-11-15T03:17:57;9.50;99.90
1453;DHT22;720;47.738;7.998;2022-11-15T03:20:25;9.50;99.90
1453;DHT22;720;47.738;7.998;2022-11-15T03:22:54;9.60;99.90
1453;DHT22;720;47.738;7.998;2022-11-15T03:25:23;9.60;99.90
1453;DHT22;720;47.738;7.998;2022-11-15T03:27:55;9.60;99.90
1453;DHT22;720;47.738;7.998;2022-11-15T03:30:22;9.60;99.90
1453;DHT22;720;47.738;7.998;2022-11-15T03:32:54;9.60;99.90
1453;DHT22;720;47.738;7.998;2022-11-15T03:35:24;9.70;99.90
1453;DHT22;720;47.738;7.998;2022-11-15T03:40:49;9.70;99.90
1453;DHT22;720;47.738;7.998;2022-11-15T03:43:27;9.70;99.90
1453;DHT22;720;47.738;7.998;2022-11-15T03:46:00;9.70;99.90
1453;DHT22;720;47.738;7.998;2022-11-15T03:48:31;9.70;99.90
1453;DHT22;720;47.738;7.998;2022-11-15T03:50:59;9.70;99.90
1453;DHT22;720;47.738;7.998;2022-11-15T03:53:25;9.70;99.90
1453;DHT22;720;47.738;7.998;2022-11-15T03:55:50;9.60;99.90
1453;DHT22;720;47.738;7.998;2022-11-15T03:58:16;9.60;99.90
1453;DHT22;720;47.738;7.998;2022-11-15T04:00:42;9.50;99.90
1453;DHT22;720;47.738;7.998;2022-11-15T04:03:07;9.40;99.90
1453;DHT22;720;47.738;7.998;2022-11-15T04:05:33;9.50;99.90
1453;DHT22;720;47.738;7.998;2022-11-15T04:07:59;9.60;99.90
1453;DHT22;720;47.738;7.998;2022-11-15T04:10:25;9.60;99.90
1453;DHT22;720;47.738;7.998;2022-11-15T04:12:50;9.70;99.90
1453;DHT22;720;47.738;7.998;2022-11-15T04:15:18;9.70;99.90
1453;DHT22;720;47.738;7.998;2022-11-15T04:17:48;9.80;99.90
1453;DHT22;720;47.738;7.998;2022-11-15T04:20:17;9.70;99.90
1453;DHT22;720;47.738;7.998;2022-11-15T04:23:05;9.70;99.90
1453;DHT22;720;47.738;7.998;2022-11-15T04:25:54;9.60;99.90
1453;DHT22;720;47.738;7.998;2022-11-15T04:28:20;9.70;99.90
1453;DHT22;720;47.738;7.998;2022-11-15T04:30:46;9.80;99.90
1453;DHT22;720;47.738;7.998;2022-11-15T04:33:12;9.70;99.90
1453;DHT22;720;47.738;7.998;2022-11-15T04:35:37;9.80;99.90
1453;DHT22;720;47.738;7.998;2022-11-15T04:38:05;9.80;99.90
1453;DHT22;720;47.738;7.998;2022-11-15T04:40:31;9.80;99.90
1453;DHT22;720;47.738;7.998;2022-11-15T04:42:57;9.80;99.90
1453;DHT22;720;47.738;7.998;2022-11-15T04:45:23;9.70;99.90
1453;DHT22;720;47.738;7.998;2022-11-15T04:47:48;9.70;99.90
1453;DHT22;720;47.738;7.998;2022-11-15T04:50:15;9.70;99.90
1453;DHT22;720;47.738;7.998;2022-11-15T04:52:42;9.80;99.90
1453;DHT22;720;47.738;7.998;2022-11-15T04:55:11;9.80;99.90
1453;DHT22;720;47.738;7.998;2022-11-15T04:57:37;9.80;99.90
1453;DHT22;720;47.738;7.998;2022-11-15T05:00:08;9.80;99.90
1453;DHT22;720;47.738;7.998;2022-11-15T05:02:34;9.80;99.90
1453;DHT22;720;47.738;7.998;2022-11-15T05:05:18;9.80;99.90
1453;DHT22;720;47.738;7.998;2022-11-15T05:07:43;9.80;99.90
1453;DHT22;720;47.738;7.998;2022-11-15T05:10:09;9.90;99.90
1453;DHT22;720;47.738;7.998;2022-11-15T05:12:35;10.40;99.90
1453;DHT22;720;47.738;7.998;2022-11-15T05:15:01;10.90;99.90
1453;DHT22;720;47.738;7.998;2022-11-15T05:17:26;11.50;99.90
1453;DHT22;720;47.738;7.998;2022-11-15T05:19:52;12.00;99.90
1453;DHT22;720;47.738;7.998;2022-11-15T05:22:18;12.40;99.90
1453;DHT22;720;47.738;7.998;2022-11-15T05:24:44;12.80;99.90
1453;DHT22;720;47.738;7.998;2022-11-15T05:27:10;13.20;99.90
1453;DHT22;720;47.738;7.998;2022-11-15T05:29:36;13.50;99.90
1453;DHT22;720;47.738;7.998;2022-11-15T05:32:03;13.40;99.90
1453;DHT22;720;47.738;7.998;2022-11-15T05:34:30;12.70;99.90
1453;DHT22;720;47.738;7.998;2022-11-15T05:39:22;12.20;97.00
1453;DHT22;720;47.738;7.998;2022-11-15T05:41:51;11.80;97.90
1453;DHT22;720;47.738;7.998;2022-11-15T05:44:21;10.90;99.60
1453;DHT22;720;47.738;7.998;2022-11-15T05:46:48;10.90;99.90
1453;DHT22;720;47.738;7.998;2022-11-15T05:49:18;10.80;99.90
1453;DHT22;720;47.738;7.998;2022-11-15T05:51:46;10.60;99.90
1453;DHT22;720;47.738;7.998;2022-11-15T05:54:14;10.30;99.90
1453;DHT22;720;47.738;7.998;2022-11-15T05:56:40;10.30;99.90
1453;DHT22;720;47.738;7.998;2022-11-15T05:59:07;10.30;99.90
1453;DHT22;720;47.738;7.998;2022-11-15T06:01:33;10.20;99.90
1453;DHT22;720;47.738;7.998;2022-11-15T06:03:59;10.10;99.90
1453;DHT22;720;47.738;7.998;2022-11-15T06:06:26;10.00;99.90
1453;DHT22;720;47.738;7.998;2022-11-15T06:08:52;10.00;99.90
1453;DHT22;720;47.738;7.998;2022-11-15T06:11:18;10.10;99.90
1453;DHT22;720;47.738;7.998;2022-11-15T06:13:43;10.10;99.90
1453;DHT22;720;47.738;7.998;2022-11-15T06:16:09;10.10;99.90
1453;DHT22;720;47.738;7.998;2022-11-15T06:18:35;10.00;99.90
1453;DHT22;720;47.738;7.998;2022-11-15T06:21:01;10.00;99.90
1453;DHT22;720;47.738;7.998;2022-11-15T06:23:28;10.00;99.90
1453;DHT22;720;47.738;7.998;2022-11-15T06:25:56;10.00;99.90
1453;DHT22;720;47.738;7.998;2022-11-15T06:28:22;10.00;99.90
1453;DHT22;720;47.738;7.998;2022-11-15T06:30:48;10.00;99.90
1453;DHT22;720;47.738;7.998;2022-11-15T06:33:14;10.00;99.90
1453;DHT22;720;47.738;7.998;2022-11-15T06:35:41;9.90;99.90
1453;DHT22;720;47.738;7.998;2022-11-15T06:38:09;10.00;99.90
1453;DHT22;720;47.738;7.998;2022-11-15T06:40:39;10.00;99.90
1453;DHT22;720;47.738;7.998;2022-11-15T06:43:06;10.00;99.90
1453;DHT22;720;47.738;7.998;2022-11-15T06:45:33;10.10;99.90
1453;DHT22;720;47.738;7.998;2022-11-15T06:47:59;10.10;99.90
1453;DHT22;720;47.738;7.998;2022-11-15T06:50:24;10.10;99.90
1453;DHT22;720;47.738;7.998;2022-11-15T06:52:50;10.10;99.90
1453;DHT22;720;47.738;7.998;2022-11-15T06:55:16;10.10;99.90
1453;DHT22;720;47.738;7.998;2022-11-15T06:57:52;10.20;99.90
1453;DHT22;720;47.738;7.998;2022-11-15T07:00:19;10.20;99.90
1453;DHT22;720;47.738;7.998;2022-11-15T07:02:46;10.20;99.90
1453;DHT22;720;47.738;7.998;2022-11-15T07:05:13;10.20;99.90
1453;DHT22;720;47.738;7.998;2022-11-15T07:07:39;10.20;99.90
1453;DHT22;720;47.738;7.998;2022-11-15T07:10:05;10.20;99.90
1453;DHT22;720;47.738;7.998;2022-11-15T07:12:31;10.10;99.90
1453;DHT22;720;47.738;7.998;2022-11-15T07:14:57;10.10;99.90
1453;DHT22;720;47.738;7.998;2022-11-15T07:17:22;10.00;99.90
1453;DHT22;720;47.738;7.998;2022-11-15T07:19:48;10.10;99.90
1453;DHT22;720;47.738;7.998;2022-11-15T07:22:13;10.10;99.90
1453;DHT22;720;47.738;7.998;2022-11-15T07:24:39;10.20;99.90
1453;DHT22;720;47.738;7.998;2022-11-15T07:27:05;10.20;99.90
1453;DHT22;720;47.738;7.998;2022-11-15T07:29:30;10.30;99.90
1453;DHT22;720;47.738;7.998;2022-11-15T07:31:56;10.40;99.90
1453;DHT22;720;47.738;7.998;2022-11-15T07:34:21;10.40;99.90
1453;DHT22;720;47.738;7.998;2022-11-15T07:36:47;10.40;99.90
1453;DHT22;720;47.738;7.998;2022-11-15T07:39:13;10.40;99.90
1453;DHT22;720;47.738;7.998;2022-11-15T07:41:39;10.50;99.90
1453;DHT22;720;47.738;7.998;2022-11-15T07:44:05;10.50;99.90
1453;DHT22;720;47.738;7.998;2022-11-15T07:46:31;10.60;99.90
1453;DHT22;720;47.738;7.998;2022-11-15T07:48:57;10.60;99.90
1453;DHT22;720;47.738;7.998;2022-11-15T07:51:23;10.70;99.90
1453;DHT22;720;47.738;7.998;2022-11-15T07:53:48;10.80;99.90
1453;DHT22;720;47.738;7.998;2022-11-15T07:56:14;10.80;99.90
1453;DHT22;720;47.738;7.998;2022-11-15T07:58:40;10.90;99.90
1453;DHT22;720;47.738;7.998;2022-11-15T08:01:07;10.90;99.90
1453;DHT22;720;47.738;7.998;2022-11-15T08:03:34;10.90;99.90
1453;DHT22;720;47.738;7.998;2022-11-15T08:06:00;10.80;99.90
1453;DHT22;720;47.738;7.998;2022-11-15T08:08:25;10.90;99.90
1453;DHT22;720;47.738;7.998;2022-11-15T08:10:51;11.00;99.90
1453;DHT22;720;47.738;7.998;2022-11-15T08:13:17;11.10;99.90
1453;DHT22;720;47.738;7.998;2022-11-15T08:15:43;11.20;99.90
1453;DHT22;720;47.738;7.998;2022-11-15T08:18:11;11.20;99.90
1453;DHT22;720;47.738;7.998;2022-11-15T08:20:37;11.30;99.90
1453;DHT22;720;47.738;7.998;2022-11-15T08:23:04;11.30;99.90
1453;DHT22;720;47.738;7.998;2022-11-15T08:25:31;11.30;99.90
1453;DHT22;720;47.738;7.998;2022-11-15T08:27:59;11.30;99.90
1453;DHT22;720;47.738;7.998;2022-11-15T08:30:26;11.40;99.90
1453;DHT22;720;47.738;7.998;2022-11-15T08:32:53;11.40;99.90
1453;DHT22;720;47.738;7.998;2022-11-15T08:35:25;11.50;99.90
1453;DHT22;720;47.738;7.998;2022-11-15T08:38:00;11.50;99.90
1453;DHT22;720;47.738;7.998;2022-11-15T08:40:26;11.60;99.90
1453;DHT22;720;47.738;7.998;2022-11-15T08:42:52;11.60;99.90
1453;DHT22;720;47.738;7.998;2022-11-15T08:45:18;11.70;99.90
1453;DHT22;720;47.738;7.998;2022-11-15T08:47:43;11.70;99.90
1453;DHT22;720;47.738;7.998;2022-11-15T08:50:09;11.80;99.90
1453;DHT22;720;47.738;7.998;2022-11-15T08:52:35;11.90;99.90
1453;DHT22;720;47.738;7.998;2022-11-15T08:55:00;12.00;99.90
1453;DHT22;720;47.738;7.998;2022-11-15T08:57:29;12.10;99.90
1453;DHT22;720;47.738;7.998;2022-11-15T08:59:56;12.10;99.90
1453;DHT22;720;47.738;7.998;2022-11-15T09:02:21;12.00;99.90
1453;DHT22;720;47.738;7.998;2022-11-15T09:04:47;12.00;99.90
1453;DHT22;720;47.738;7.998;2022-11-15T09:07:13;12.00;99.90
1453;DHT22;720;47.738;7.998;2022-11-15T09:09:40;12.10;99.90
1453;DHT22;720;47.738;7.998;2022-11-15T09:12:07;12.20;99.90
1453;DHT22;720;47.738;7.998;2022-11-15T09:14:33;12.20;99.90
1453;DHT22;720;47.738;7.998;2022-11-15T09:16:59;12.30;99.90
1453;DHT22;720;47.738;7.998;2022-11-15T09:19:24;12.30;99.90
1453;DHT22;720;47.738;7.998;2022-11-15T09:21:50;12.30;99.90
1453;DHT22;720;47.738;7.998;2022-11-15T09:24:16;12.30;99.90
1453;DHT22;720;47.738;7.998;2022-11-15T09:26:43;12.30;99.90
1453;DHT22;720;47.738;7.998;2022-11-15T09:29:08;12.40;99.90
1453;DHT22;720;47.738;7.998;2022-11-15T09:31:34;12.30;99.90
1453;DHT22;720;47.738;7.998;2022-11-15T09:33:59;12.40;99.90
1453;DHT22;720;47.738;7.998;2022-11-15T09:36:26;12.40;99.90
1453;DHT22;720;47.738;7.998;2022-11-15T09:38:52;12.50;99.90
1453;DHT22;720;47.738;7.998;2022-11-15T09:48:15;12.80;99.90
1453;DHT22;720;47.738;7.998;2022-11-15T09:50:15;13.00;99.90
1453;DHT22;720;47.738;7.998;2022-11-15T09:52:44;13.10;99.90
1453;DHT22;720;47.738;7.998;2022-11-15T09:55:12;13.20;99.90
1453;DHT22;720;47.738;7.998;2022-11-15T09:57:47;13.10;99.90
1453;DHT22;720;47.738;7.998;2022-11-15T10:03:11;12.90;99.90
1453;DHT22;720;47.738;7.998;2022-11-15T10:05:44;12.80;99.90
1453;DHT22;720;47.738;7.998;2022-11-15T10:08:20;12.80;99.90
1453;DHT22;720;47.738;7.998;2022-11-15T10:10:56;12.70;99.90
1453;DHT22;720;47.738;7.998;2022-11-15T10:13:33;12.80;99.90
1453;DHT22;720;47.738;7.998;2022-11-15T10:21:21;12.90;99.90
1453;DHT22;720;47.738;7.998;2022-11-15T10:23:50;13.00;99.90
1453;DHT22;720;47.738;7.998;2022-11-15T10:26:17;13.10;99.90
1453;DHT22;720;47.738;7.998;2022-11-15T10:28:43;13.10;99.90
1453;DHT22;720;47.738;7.998;2022-11-15T10:31:25;13.20;99.90
1453;DHT22;720;47.738;7.998;2022-11-15T10:33:56;13.30;99.90
1453;DHT22;720;47.738;7.998;2022-11-15T10:36:24;13.30;99.90
1453;DHT22;720;47.738;7.998;2022-11-15T10:43:44;13.20;99.90
1453;DHT22;720;47.738;7.998;2022-11-15T10:46:21;13.10;99.90
1453;DHT22;720;47.738;7.998;2022-11-15T10:48:47;13.20;99.90
1453;DHT22;720;47.738;7.998;2022-11-15T10:51:38;13.20;99.90
1453;DHT22;720;47.738;7.998;2022-11-15T10:54:06;13.20;99.90
1453;DHT22;720;47.738;7.998;2022-11-15T10:56:34;13.30;99.90
1453;DHT22;720;47.738;7.998;2022-11-15T10:58:59;13.40;99.90
1453;DHT22;720;47.738;7.998;2022-11-15T11:01:27;13.50;99.90
1453;DHT22;720;47.738;7.998;2022-11-15T11:04:06;13.40;99.90
1453;DHT22;720;47.738;7.998;2022-11-15T11:06:56;13.70;99.90
1453;DHT22;720;47.738;7.998;2022-11-15T11:09:32;13.80;99.90
1453;DHT22;720;47.738;7.998;2022-11-15T11:11:59;13.90;99.90
1453;DHT22;720;47.738;7.998;2022-11-15T11:14:33;14.10;99.90
1453;DHT22;720;47.738;7.998;2022-11-15T11:22:29;14.40;99.90
1453;DHT22;720;47.738;7.998;2022-11-15T11:30:10;14.00;99.90
1453;DHT22;720;47.738;7.998;2022-11-15T11:32:56;13.90;99.90
1453;DHT22;720;47.738;7.998;2022-11-15T11:35:25;13.90;99.90
1453;DHT22;720;47.738;7.998;2022-11-15T11:46:16;13.90;99.90
1453;DHT22;720;47.738;7.998;2022-11-15T11:48:51;14.00;99.90
1453;DHT22;720;47.738;7.998;2022-11-15T11:51:41;14.00;99.90
1453;DHT22;720;47.738;7.998;2022-11-15T11:54:47;14.00;99.90
1453;DHT22;720;47.738;7.998;2022-11-15T11:57:39;14.10;99.90
1453;DHT22;720;47.738;7.998;2022-11-15T12:00:21;14.20;99.90
1453;DHT22;720;47.738;7.998;2022-11-15T12:03:24;14.30;99.90
1453;DHT22;720;47.738;7.998;2022-11-15T12:05:44;14.20;99.90
1453;DHT22;720;47.738;7.998;2022-11-15T12:08:48;14.10;99.90
1453;DHT22;720;47.738;7.998;2022-11-15T12:13:59;14.20;99.90
1453;DHT22;720;47.738;7.998;2022-11-15T12:16:31;14.20;99.90
1453;DHT22;720;47.738;7.998;2022-11-15T12:19:03;14.20;99.90
1453;DHT22;720;47.738;7.998;2022-11-15T12:25:35;14.00;99.90
1453;DHT22;720;47.738;7.998;2022-11-15T12:27:45;13.90;99.90
1453;DHT22;720;47.738;7.998;2022-11-15T12:30:20;13.80;99.90
1453;DHT22;720;47.738;7.998;2022-11-15T12:33:31;13.70;99.90
1453;DHT22;720;47.738;7.998;2022-11-15T12:36:10;13.60;99.90
1453;DHT22;720;47.738;7.998;2022-11-15T12:39:04;13.50;99.90
1453;DHT22;720;47.738;7.998;2022-11-15T12:41:32;13.60;99.90
1453;DHT22;720;47.738;7.998;2022-11-15T12:43:59;13.80;99.90
1453;DHT22;720;47.738;7.998;2022-11-15T12:49:01;14.10;99.90
1453;DHT22;720;47.738;7.998;2022-11-15T13:02:42;14.60;99.10
1453;DHT22;720;47.738;7.998;2022-11-15T13:17:49;14.30;99.90
1453;DHT22;720;47.738;7.998;2022-11-15T13:25:54;14.30;99.90
1453;DHT22;720;47.738;7.998;2022-11-15T13:28:33;14.10;99.90
1453;DHT22;720;47.738;7.998;2022-11-15T13:31:13;14.10;99.90
1453;DHT22;720;47.738;7.998;2022-11-15T13:33:39;14.10;99.90
1453;DHT22;720;47.738;7.998;2022-11-15T13:36:29;14.10;99.90
1453;DHT22;720;47.738;7.998;2022-11-15T13:39:06;14.40;99.90
1453;DHT22;720;47.738;7.998;2022-11-15T13:41:35;14.50;99.90
1453;DHT22;720;47.738;7.998;2022-11-15T13:44:03;15.00;99.70
1453;DHT22;720;47.738;7.998;2022-11-15T13:46:33;15.40;98.80
1453;DHT22;720;47.738;7.998;2022-11-15T13:49:05;15.80;98.00
1453;DHT22;720;47.738;7.998;2022-11-15T13:51:40;16.20;97.30
1453;DHT22;720;47.738;7.998;2022-11-15T13:56:58;16.60;96.40
1453;DHT22;720;47.738;7.998;2022-11-15T14:01:55;15.60;97.00
1453;DHT22;720;47.738;7.998;2022-11-15T14:04:23;14.90;97.10
1453;DHT22;720;47.738;7.998;2022-11-15T14:06:54;14.30;97.20
1453;DHT22;720;47.738;7.998;2022-11-15T14:09:39;13.80;98.60
1453;DHT22;720;47.738;7.998;2022-11-15T14:12:25;13.40;98.90
1453;DHT22;720;47.738;7.998;2022-11-15T14:14:52;13.20;99.80
1453;DHT22;720;47.738;7.998;2022-11-15T14:17:34;13.00;99.50
1453;DHT22;720;47.738;7.998;2022-11-15T14:20:00;12.90;99.90
1453;DHT22;720;47.738;7.998;2022-11-15T14:22:28;12.80;99.90
1453;DHT22;720;47.738;7.998;2022-11-15T14:27:39;12.90;99.90
1453;DHT22;720;47.738;7.998;2022-11-15T14:30:05;13.00;99.90
1453;DHT22;720;47.738;7.998;2022-11-15T14:32:46;12.80;99.90
1453;DHT22;720;47.738;7.998;2022-11-15T14:35:18;12.50;99.90
1453;DHT22;720;47.738;7.998;2022-11-15T14:37:45;12.30;99.90
1453;DHT22;720;47.738;7.998;2022-11-15T14:40:14;12.20;99.90
1453;DHT22;720;47.738;7.998;2022-11-15T14:42:40;12.10;99.90
1453;DHT22;720;47.738;7.998;2022-11-15T14:47:39;12.00;99.90
1453;DHT22;720;47.738;7.998;2022-11-15T14:50:05;11.90;99.90
1453;DHT22;720;47.738;7.998;2022-11-15T14:52:36;11.70;99.90
1453;DHT22;720;47.738;7.998;2022-11-15T14:55:03;11.70;99.90
1453;DHT22;720;47.738;7.998;2022-11-15T14:57:30;11.60;99.90
1453;DHT22;720;47.738;7.998;2022-11-15T14:59:56;11.50;99.90
1453;DHT22;720;47.738;7.998;2022-11-15T15:02:26;11.40;99.90
1453;DHT22;720;47.738;7.998;2022-11-15T15:04:52;11.30;99.90
1453;DHT22;720;47.738;7.998;2022-11-15T15:07:18;11.30;99.90
1453;DHT22;720;47.738;7.998;2022-11-15T15:09:45;11.20;99.90
1453;DHT22;720;47.738;7.998;2022-11-15T15:12:22;11.20;99.90
1453;DHT22;720;47.738;7.998;2022-11-15T15:14:49;11.20;99.90
1453;DHT22;720;47.738;7.998;2022-11-15T15:17:16;11.00;99.90
1453;DHT22;720;47.738;7.998;2022-11-15T15:19:42;11.00;99.90
1453;DHT22;720;47.738;7.998;2022-11-15T15:22:13;11.00;99.90
1453;DHT22;720;47.738;7.998;2022-11-15T15:24:50;10.80;99.90
1453;DHT22;720;47.738;7.998;2022-11-15T15:27:19;10.90;99.90
1453;DHT22;720;47.738;7.998;2022-11-15T15:29:45;10.90;99.90
1453;DHT22;720;47.738;7.998;2022-11-15T15:32:11;11.00;99.90
1453;DHT22;720;47.738;7.998;2022-11-15T15:34:37;11.00;99.90
1453;DHT22;720;47.738;7.998;2022-11-15T15:37:22;11.00;99.90
1453;DHT22;720;47.738;7.998;2022-11-15T15:39:51;10.90;99.90
1453;DHT22;720;47.738;7.998;2022-11-15T15:42:18;10.90;99.90
1453;DHT22;720;47.738;7.998;2022-11-15T15:44:45;10.90;99.90
1453;DHT22;720;47.738;7.998;2022-11-15T15:47:20;11.00;99.90
1453;DHT22;720;47.738;7.998;2022-11-15T15:49:46;10.80;99.90
1453;DHT22;720;47.738;7.998;2022-11-15T15:52:12;10.70;99.90
1453;DHT22;720;47.738;7.998;2022-11-15T15:54:39;10.60;99.90
1453;DHT22;720;47.738;7.998;2022-11-15T15:57:05;10.60;99.90
1453;DHT22;720;47.738;7.998;2022-11-15T15:59:31;10.50;99.90
1453;DHT22;720;47.738;7.998;2022-11-15T16:01:57;10.50;99.90
1453;DHT22;720;47.738;7.998;2022-11-15T16:04:23;10.50;99.90
1453;DHT22;720;47.738;7.998;2022-11-15T16:06:49;10.40;99.90
1453;DHT22;720;47.738;7.998;2022-11-15T16:09:19;10.20;99.90
1453;DHT22;720;47.738;7.998;2022-11-15T16:12:04;10.20;99.90
1453;DHT22;720;47.738;7.998;2022-11-15T16:14:31;10.10;99.90
1453;DHT22;720;47.738;7.998;2022-11-15T16:16:57;10.20;99.90
1453;DHT22;720;47.738;7.998;2022-11-15T16:19:22;10.30;99.90
1453;DHT22;720;47.738;7.998;2022-11-15T16:21:48;10.30;99.90
1453;DHT22;720;47.738;7.998;2022-11-15T16:24:14;10.20;99.90
1453;DHT22;720;47.738;7.998;2022-11-15T16:26:40;10.20;99.90
1453;DHT22;720;47.738;7.998;2022-11-15T16:29:07;10.20;99.90
1453;DHT22;720;47.738;7.998;2022-11-15T16:31:34;10.20;99.90
1453;DHT22;720;47.738;7.998;2022-11-15T16:34:00;10.20;99.90
1453;DHT22;720;47.738;7.998;2022-11-15T16:36:26;10.30;99.90
1453;DHT22;720;47.738;7.998;2022-11-15T16:38:52;10.30;99.90
1453;DHT22;720;47.738;7.998;2022-11-15T16:41:18;10.30;99.90
1453;DHT22;720;47.738;7.998;2022-11-15T16:43:48;10.30;99.90
1453;DHT22;720;47.738;7.998;2022-11-15T16:46:19;10.40;99.90
1453;DHT22;720;47.738;7.998;2022-11-15T16:48:45;10.30;99.90
1453;DHT22;720;47.738;7.998;2022-11-15T16:51:10;10.20;99.90
1453;DHT22;720;47.738;7.998;2022-11-15T16:53:36;10.30;99.90
1453;DHT22;720;47.738;7.998;2022-11-15T16:56:02;10.30;99.90
1453;DHT22;720;47.738;7.998;2022-11-15T16:58:28;10.20;99.90
1453;DHT22;720;47.738;7.998;2022-11-15T17:00:55;10.30;99.90
1453;DHT22;720;47.738;7.998;2022-11-15T17:03:22;10.30;99.90
1453;DHT22;720;47.738;7.998;2022-11-15T17:05:48;10.30;99.90
1453;DHT22;720;47.738;7.998;2022-11-15T17:08:14;10.40;99.90
1453;DHT22;720;47.738;7.998;2022-11-15T17:10:40;10.30;99.90
1453;DHT22;720;47.738;7.998;2022-11-15T17:13:11;10.40;99.90
1453;DHT22;720;47.738;7.998;2022-11-15T17:15:38;10.50;99.90
1453;DHT22;720;47.738;7.998;2022-11-15T17:18:04;10.40;99.90
1453;DHT22;720;47.738;7.998;2022-11-15T17:20:31;10.40;99.90
1453;DHT22;720;47.738;7.998;2022-11-15T17:22:57;10.40;99.90
1453;DHT22;720;47.738;7.998;2022-11-15T17:25:23;10.40;99.90
1453;DHT22;720;47.738;7.998;2022-11-15T17:27:49;10.40;99.90
1453;DHT22;720;47.738;7.998;2022-11-15T17:30:15;10.40;99.90
1453;DHT22;720;47.738;7.998;2022-11-15T17:32:42;10.40;99.90
1453;DHT22;720;47.738;7.998;2022-11-15T17:35:09;10.40;99.90
1453;DHT22;720;47.738;7.998;2022-11-15T17:37:35;10.40;99.90
1453;DHT22;720;47.738;7.998;2022-11-15T17:40:01;10.40;99.90
1453;DHT22;720;47.738;7.998;2022-11-15T17:42:27;10.40;99.90
1453;DHT22;720;47.738;7.998;2022-11-15T17:44:53;10.40;99.90
1453;DHT22;720;47.738;7.998;2022-11-15T17:47:19;10.40;99.90
1453;DHT22;720;47.738;7.998;2022-11-15T17:49:45;10.30;99.90
1453;DHT22;720;47.738;7.998;2022-11-15T17:52:12;10.30;99.90
1453;DHT22;720;47.738;7.998;2022-11-15T17:54:37;10.30;99.90
1453;DHT22;720;47.738;7.998;2022-11-15T17:57:04;10.30;99.90
1453;DHT22;720;47.738;7.998;2022-11-15T17:59:29;10.30;99.90
1453;DHT22;720;47.738;7.998;2022-11-15T18:01:55;10.20;99.90
1453;DHT22;720;47.738;7.998;2022-11-15T18:04:21;10.30;99.90
1453;DHT22;720;47.738;7.998;2022-11-15T18:06:52;10.30;99.90
1453;DHT22;720;47.738;7.998;2022-11-15T18:09:18;10.20;99.90
1453;DHT22;720;47.738;7.998;2022-11-15T18:11:44;10.30;99.90
1453;DHT22;720;47.738;7.998;2022-11-15T18:14:15;10.20;99.90
1453;DHT22;720;47.738;7.998;2022-11-15T18:16:42;10.20;99.90
1453;DHT22;720;47.738;7.998;2022-11-15T18:19:09;10.30;99.90
1453;DHT22;720;47.738;7.998;2022-11-15T18:21:39;10.40;99.90
1453;DHT22;720;47.738;7.998;2022-11-15T18:24:27;10.30;99.90
1453;DHT22;720;47.738;7.998;2022-11-15T18:27:07;10.30;99.90
1453;DHT22;720;47.738;7.998;2022-11-15T18:29:33;10.30;99.90
1453;DHT22;720;47.738;7.998;2022-11-15T18:32:03;10.30;99.90
1453;DHT22;720;47.738;7.998;2022-11-15T18:34:35;10.30;99.90